sensor_id;sensor_type;location;lat;lon;timestamp;pressure;altitude;pressure_sealevel;temperature;humidity
47809;BME280;33573;38.790;-77.084;2024-01-16T00:02:20;101918.86;;;16.85;24.76
47809;BME280;33573;38.790;-77.084;2024-01-16T00:04:49;101920.75;;;16.84;24.70
47809;BME280;33573;38.790;-77.084;2024-01-16T00:07:11;101919.16;;;16.84;24.78
47809;BME280;33573;38.790;-77.084;2024-01-16T00:09:37;101916.65;;;16.97;24.85
47809;BME280;33573;38.790;-77.084;2024-01-16T00:12:06;101915.12;;;16.78;24.94
47809;BME280;33573;38.790;-77.084;2024-01-16T00:14:27;101914.03;;;16.84;25.15
47809;BME280;33573;38.790;-77.084;2024-01-16T00:16:53;101915.00;;;16.96;25.09
47809;BME280;33573;38.790;-77.084;2024-01-16T00:19:14;101911.66;;;17.10;25.17
47809;BME280;33573;38.790;-77.084;2024-01-16T00:21:47;101907.05;;;16.70;25.36
47809;BME280;33573;38.790;-77.084;2024-01-16T00:24:13;101903.65;;;16.74;25.03
47809;BME280;33573;38.790;-77.084;2024-01-16T00:26:38;101905.85;;;16.82;25.01
47809;BME280;33573;38.790;-77.084;2024-01-16T00:29:00;101906.26;;;17.04;25.10
47809;BME280;33573;38.790;-77.084;2024-01-16T00:31:25;101904.95;;;17.10;25.11
47809;BME280;33573;38.790;-77.084;2024-01-16T00:33:55;101908.87;;;16.96;25.16
47809;BME280;33573;38.790;-77.084;2024-01-16T00:36:17;101912.96;;;17.16;25.09
47809;BME280;33573;38.790;-77.084;2024-01-16T00:38:42;101908.25;;;16.97;25.13
47809;BME280;33573;38.790;-77.084;2024-01-16T00:41:11;101908.54;;;16.97;25.12
47809;BME280;33573;38.790;-77.084;2024-01-16T00:43:33;101911.32;;;17.20;24.93
47809;BME280;33573;38.790;-77.084;2024-01-16T00:48:28;101906.20;;;17.16;24.91
47809;BME280;33573;38.790;-77.084;2024-01-16T00:50:49;101909.86;;;17.05;25.02
47809;BME280;33573;38.790;-77.084;2024-01-16T00:53:15;101909.91;;;17.03;25.05
47809;BME280;33573;38.790;-77.084;2024-01-16T00:55:44;101914.78;;;17.02;24.94
47809;BME280;33573;38.790;-77.084;2024-01-16T00:58:05;101916.41;;;16.97;25.02
47809;BME280;33573;38.790;-77.084;2024-01-16T01:00:32;101912.60;;;17.09;24.95
47809;BME280;33573;38.790;-77.084;2024-01-16T01:02:54;101912.64;;;16.95;24.94
47809;BME280;33573;38.790;-77.084;2024-01-16T01:05:24;101916.47;;;17.13;25.01
47809;BME280;33573;38.790;-77.084;2024-01-16T01:07:47;101913.97;;;17.11;25.04
47809;BME280;33573;38.790;-77.084;2024-01-16T01:10:17;101911.23;;;17.14;24.93
47809;BME280;33573;38.790;-77.084;2024-01-16T01:12:39;101906.29;;;16.87;25.14
47809;BME280;33573;38.790;-77.084;2024-01-16T01:15:05;101909.61;;;16.92;24.99
47809;BME280;33573;38.790;-77.084;2024-01-16T01:17:33;101910.45;;;16.86;25.03
47809;BME280;33573;38.790;-77.084;2024-01-16T01:19:51;101911.75;;;17.19;24.81
47809;BME280;33573;38.790;-77.084;2024-01-16T01:22:22;101906.36;;;16.92;25.14
47809;BME280;33573;38.790;-77.084;2024-01-16T01:24:50;101903.85;;;17.02;25.04
47809;BME280;33573;38.790;-77.084;2024-01-16T01:27:11;101897.12;;;16.76;25.07
47809;BME280;33573;38.790;-77.084;2024-01-16T01:29:37;101899.18;;;16.99;25.09
47809;BME280;33573;38.790;-77.084;2024-01-16T01:32:04;101895.76;;;17.05;25.04
47809;BME280;33573;38.790;-77.084;2024-01-16T01:34:31;101893.59;;;16.93;25.06
47809;BME280;33573;38.790;-77.084;2024-01-16T01:36:49;101892.80;;;17.27;24.80
47809;BME280;33573;38.790;-77.084;2024-01-16T01:39:24;101893.69;;;17.05;24.95
47809;BME280;33573;38.790;-77.084;2024-01-16T01:41:47;101893.04;;;17.02;25.04
47809;BME280;33573;38.790;-77.084;2024-01-16T01:44:09;101890.72;;;17.02;25.02
47809;BME280;33573;38.790;-77.084;2024-01-16T01:46:37;101890.91;;;16.91;25.08
47809;BME280;33573;38.790;-77.084;2024-01-16T01:49:04;101890.16;;;16.88;25.09
47809;BME280;33573;38.790;-77.084;2024-01-16T01:51:26;101890.10;;;16.88;25.05
47809;BME280;33573;38.790;-77.084;2024-01-16T01:53:54;101890.44;;;16.74;25.08
47809;BME280;33573;38.790;-77.084;2024-01-16T01:56:20;101887.51;;;16.94;24.90
47809;BME280;33573;38.790;-77.084;2024-01-16T01:58:48;101887.96;;;16.88;24.98
47809;BME280;33573;38.790;-77.084;2024-01-16T02:01:08;101894.40;;;16.94;24.96
47809;BME280;33573;38.790;-77.084;2024-01-16T02:03:39;101898.72;;;16.88;25.03
47809;BME280;33573;38.790;-77.084;2024-01-16T02:06:00;101896.84;;;16.77;25.12
47809;BME280;33573;38.790;-77.084;2024-01-16T02:08:25;101890.40;;;16.77;25.07
47809;BME280;33573;38.790;-77.084;2024-01-16T02:10:54;101884.76;;;16.93;24.89
47809;BME280;33573;38.790;-77.084;2024-01-16T02:13:19;101895.00;;;16.92;24.94
47809;BME280;33573;38.790;-77.084;2024-01-16T02:15:41;101881.49;;;16.79;24.89
47809;BME280;33573;38.790;-77.084;2024-01-16T02:18:09;101872.56;;;16.99;25.02
47809;BME280;33573;38.790;-77.084;2024-01-16T02:20:32;101872.46;;;17.32;24.88
47809;BME280;33573;38.790;-77.084;2024-01-16T02:22:57;101879.05;;;16.98;25.07
47809;BME280;33573;38.790;-77.084;2024-01-16T02:25:26;101877.37;;;17.25;24.99
47809;BME280;33573;38.790;-77.084;2024-01-16T02:27:50;101881.02;;;16.96;25.07
47809;BME280;33573;38.790;-77.084;2024-01-16T02:30:09;101884.04;;;17.03;24.92
47809;BME280;33573;38.790;-77.084;2024-01-16T02:32:35;101869.95;;;17.09;24.85
47809;BME280;33573;38.790;-77.084;2024-01-16T02:35:06;101861.08;;;17.22;24.79
47809;BME280;33573;38.790;-77.084;2024-01-16T02:37:29;101854.52;;;16.94;24.90
47809;BME280;33573;38.790;-77.084;2024-01-16T02:39:51;101846.50;;;17.15;24.98
47809;BME280;33573;38.790;-77.084;2024-01-16T02:42:22;101839.82;;;17.16;24.96
47809;BME280;33573;38.790;-77.084;2024-01-16T02:44:46;101826.57;;;17.13;24.98
47809;BME280;33573;38.790;-77.084;2024-01-16T02:47:15;101805.02;;;16.98;25.07
47809;BME280;33573;38.790;-77.084;2024-01-16T02:49:33;101791.85;;;17.01;24.94
47809;BME280;33573;38.790;-77.084;2024-01-16T02:52:02;101798.47;;;17.03;24.92
47809;BME280;33573;38.790;-77.084;2024-01-16T02:54:32;101778.26;;;17.14;24.90
47809;BME280;33573;38.790;-77.084;2024-01-16T02:56:54;101780.02;;;17.18;24.93
47809;BME280;33573;38.790;-77.084;2024-01-16T02:59:20;101785.32;;;17.23;24.90
47809;BME280;33573;38.790;-77.084;2024-01-16T03:01:48;101782.41;;;17.18;24.98
47809;BME280;33573;38.790;-77.084;2024-01-16T03:04:10;101778.92;;;17.15;24.98
47809;BME280;33573;38.790;-77.084;2024-01-16T03:06:35;101783.19;;;17.07;25.02
47809;BME280;33573;38.790;-77.084;2024-01-16T03:09:04;101790.65;;;16.78;25.01
47809;BME280;33573;38.790;-77.084;2024-01-16T03:11:27;101797.26;;;17.13;24.93
47809;BME280;33573;38.790;-77.084;2024-01-16T03:13:52;101812.49;;;16.56;24.97
47809;BME280;33573;38.790;-77.084;2024-01-16T03:16:21;101791.41;;;17.05;24.91
47809;BME280;33573;38.790;-77.084;2024-01-16T03:18:39;101765.41;;;16.98;24.93
47809;BME280;33573;38.790;-77.084;2024-01-16T03:21:03;101747.13;;;16.97;24.93
47809;BME280;33573;38.790;-77.084;2024-01-16T03:23:37;101752.83;;;17.17;24.97
47809;BME280;33573;38.790;-77.084;2024-01-16T03:25:54;101746.79;;;17.23;24.74
47809;BME280;33573;38.790;-77.084;2024-01-16T03:28:26;101729.44;;;16.74;25.03
47809;BME280;33573;38.790;-77.084;2024-01-16T03:30:54;101726.83;;;16.45;25.19
47809;BME280;33573;38.790;-77.084;2024-01-16T03:33:11;101715.74;;;16.33;25.27
47809;BME280;33573;38.790;-77.084;2024-01-16T03:35:41;101704.38;;;16.23;25.34
47809;BME280;33573;38.790;-77.084;2024-01-16T03:38:10;101710.79;;;16.24;25.27
47809;BME280;33573;38.790;-77.084;2024-01-16T03:40:33;101710.89;;;16.42;25.30
47809;BME280;33573;38.790;-77.084;2024-01-16T03:42:57;101710.59;;;16.11;25.29
47809;BME280;33573;38.790;-77.084;2024-01-16T03:45:18;101717.22;;;16.28;25.35
47809;BME280;33573;38.790;-77.084;2024-01-16T03:47:47;101713.54;;;16.35;25.26
47809;BME280;33573;38.790;-77.084;2024-01-16T03:50:09;101716.59;;;16.05;25.31
47809;BME280;33573;38.790;-77.084;2024-01-16T03:52:34;101720.47;;;16.04;25.23
47809;BME280;33573;38.790;-77.084;2024-01-16T03:55:04;101711.93;;;16.02;25.22
47809;BME280;33573;38.790;-77.084;2024-01-16T03:57:29;101705.98;;;15.99;25.21
47809;BME280;33573;38.790;-77.084;2024-01-16T03:59:55;101690.04;;;16.16;25.24
47809;BME280;33573;38.790;-77.084;2024-01-16T04:02:21;101681.37;;;15.94;25.19
47809;BME280;33573;38.790;-77.084;2024-01-16T04:04:41;101674.87;;;16.15;25.17
47809;BME280;33573;38.790;-77.084;2024-01-16T04:07:15;101676.54;;;16.21;25.09
47809;BME280;33573;38.790;-77.084;2024-01-16T04:09:36;101676.55;;;15.91;25.11
47809;BME280;33573;38.790;-77.084;2024-01-16T04:12:04;101668.79;;;16.00;25.01
47809;BME280;33573;38.790;-77.084;2024-01-16T04:14:28;101661.30;;;15.94;25.05
47809;BME280;33573;38.790;-77.084;2024-01-16T04:16:48;101650.08;;;15.96;24.99
47809;BME280;33573;38.790;-77.084;2024-01-16T04:19:18;101642.17;;;15.79;25.12
47809;BME280;33573;38.790;-77.084;2024-01-16T04:21:41;101636.88;;;16.11;25.04
47809;BME280;33573;38.790;-77.084;2024-01-16T04:24:13;101643.02;;;15.91;24.99
47809;BME280;33573;38.790;-77.084;2024-01-16T04:26:38;101641.15;;;15.82;25.04
47809;BME280;33573;38.790;-77.084;2024-01-16T04:28:55;101649.02;;;15.91;24.94
47809;BME280;33573;38.790;-77.084;2024-01-16T04:31:29;101653.18;;;16.07;24.97
47809;BME280;33573;38.790;-77.084;2024-01-16T04:33:51;101635.43;;;16.17;25.08
47809;BME280;33573;38.790;-77.084;2024-01-16T04:36:11;101626.47;;;16.19;25.04
47809;BME280;33573;38.790;-77.084;2024-01-16T04:38:46;101602.51;;;16.25;24.96
47809;BME280;33573;38.790;-77.084;2024-01-16T04:41:07;101601.16;;;16.22;24.97
47809;BME280;33573;38.790;-77.084;2024-01-16T04:43:33;101592.39;;;15.67;24.99
47809;BME280;33573;38.790;-77.084;2024-01-16T04:45:58;101592.45;;;15.89;24.99
47809;BME280;33573;38.790;-77.084;2024-01-16T04:48:23;101596.04;;;15.74;24.90
47809;BME280;33573;38.790;-77.084;2024-01-16T04:50:49;101604.48;;;16.29;24.83
47809;BME280;33573;38.790;-77.084;2024-01-16T04:53:18;101602.05;;;15.94;24.90
47809;BME280;33573;38.790;-77.084;2024-01-16T04:55:40;101604.63;;;15.91;24.90
47809;BME280;33573;38.790;-77.084;2024-01-16T04:58:05;101605.93;;;15.66;24.91
47809;BME280;33573;38.790;-77.084;2024-01-16T05:00:35;101587.16;;;15.54;24.97
47809;BME280;33573;38.790;-77.084;2024-01-16T05:02:56;101565.51;;;15.85;24.88
47809;BME280;33573;38.790;-77.084;2024-01-16T05:05:22;101561.38;;;15.81;24.91
47809;BME280;33573;38.790;-77.084;2024-01-16T05:07:47;101558.63;;;15.77;24.93
47809;BME280;33573;38.790;-77.084;2024-01-16T05:10:13;101562.62;;;15.98;24.93
47809;BME280;33573;38.790;-77.084;2024-01-16T05:12:38;101574.45;;;15.75;24.93
47809;BME280;33573;38.790;-77.084;2024-01-16T05:15:08;101576.47;;;16.02;24.86
47809;BME280;33573;38.790;-77.084;2024-01-16T05:22:24;101590.81;;;15.67;24.90
47809;BME280;33573;38.790;-77.084;2024-01-16T05:24:45;101578.01;;;15.90;24.89
47809;BME280;33573;38.790;-77.084;2024-01-16T05:27:11;101585.24;;;15.95;24.86
47809;BME280;33573;38.790;-77.084;2024-01-16T05:29:41;101586.47;;;15.90;24.86
47809;BME280;33573;38.790;-77.084;2024-01-16T05:32:02;101585.40;;;15.70;24.80
47809;BME280;33573;38.790;-77.084;2024-01-16T05:34:22;101585.60;;;15.85;24.87
47809;BME280;33573;38.790;-77.084;2024-01-16T05:36:48;101602.81;;;15.88;24.84
47809;BME280;33573;38.790;-77.084;2024-01-16T05:39:18;101591.94;;;15.61;24.84
47809;BME280;33573;38.790;-77.084;2024-01-16T05:41:44;101586.46;;;15.58;24.83
47809;BME280;33573;38.790;-77.084;2024-01-16T05:44:09;101582.17;;;15.62;24.80
47809;BME280;33573;38.790;-77.084;2024-01-16T05:46:35;101558.60;;;15.86;24.79
47809;BME280;33573;38.790;-77.084;2024-01-16T05:49:00;101545.41;;;15.61;24.77
47809;BME280;33573;38.790;-77.084;2024-01-16T05:51:30;101541.77;;;15.66;24.92
47809;BME280;33573;38.790;-77.084;2024-01-16T05:53:51;101523.66;;;15.73;24.87
47809;BME280;33573;38.790;-77.084;2024-01-16T05:56:16;101506.44;;;15.68;24.89
47809;BME280;33573;38.790;-77.084;2024-01-16T05:58:42;101479.38;;;15.47;24.84
47809;BME280;33573;38.790;-77.084;2024-01-16T06:01:07;101485.61;;;15.74;24.79
47809;BME280;33573;38.790;-77.084;2024-01-16T06:03:33;101492.84;;;15.74;24.78
47809;BME280;33573;38.790;-77.084;2024-01-16T06:05:53;101485.08;;;15.68;24.81
47809;BME280;33573;38.790;-77.084;2024-01-16T06:08:24;101488.01;;;15.28;24.76
47809;BME280;33573;38.790;-77.084;2024-01-16T06:10:45;101493.58;;;15.64;24.84
47809;BME280;33573;38.790;-77.084;2024-01-16T06:13:19;101484.92;;;15.56;24.89
47809;BME280;33573;38.790;-77.084;2024-01-16T06:15:40;101477.79;;;15.56;24.89
47809;BME280;33573;38.790;-77.084;2024-01-16T06:18:06;101466.55;;;15.39;24.81
47809;BME280;33573;38.790;-77.084;2024-01-16T06:20:31;101457.51;;;15.56;24.84
47809;BME280;33573;38.790;-77.084;2024-01-16T06:22:51;101461.39;;;15.31;24.83
47809;BME280;33573;38.790;-77.084;2024-01-16T06:25:22;101467.51;;;15.30;24.85
47809;BME280;33573;38.790;-77.084;2024-01-16T06:27:52;101488.35;;;15.57;24.80
47809;BME280;33573;38.790;-77.084;2024-01-16T06:30:13;101485.80;;;15.61;24.72
47809;BME280;33573;38.790;-77.084;2024-01-16T06:32:38;101473.46;;;15.62;24.72
47809;BME280;33573;38.790;-77.084;2024-01-16T06:35:08;101458.18;;;15.39;24.70
47809;BME280;33573;38.790;-77.084;2024-01-16T06:37:29;101461.72;;;15.55;24.75
47809;BME280;33573;38.790;-77.084;2024-01-16T06:39:55;101449.38;;;15.44;24.85
47809;BME280;33573;38.790;-77.084;2024-01-16T06:42:24;101439.41;;;15.45;24.82
47809;BME280;33573;38.790;-77.084;2024-01-16T06:44:46;101433.58;;;15.49;24.75
47809;BME280;33573;38.790;-77.084;2024-01-16T06:47:11;101436.42;;;15.39;24.83
47809;BME280;33573;38.790;-77.084;2024-01-16T06:49:41;101439.88;;;15.43;24.79
47809;BME280;33573;38.790;-77.084;2024-01-16T06:52:02;101435.69;;;15.38;24.82
47809;BME280;33573;38.790;-77.084;2024-01-16T06:54:28;101418.10;;;15.40;24.79
47809;BME280;33573;38.790;-77.084;2024-01-16T06:56:53;101414.86;;;15.35;24.84
47809;BME280;33573;38.790;-77.084;2024-01-16T06:59:23;101416.08;;;15.39;24.77
47809;BME280;33573;38.790;-77.084;2024-01-16T07:01:44;101402.15;;;15.29;24.84
47809;BME280;33573;38.790;-77.084;2024-01-16T07:04:04;101384.33;;;15.18;24.70
47809;BME280;33573;38.790;-77.084;2024-01-16T07:06:39;101386.43;;;15.54;24.79
47809;BME280;33573;38.790;-77.084;2024-01-16T07:09:00;101382.48;;;15.33;24.78
47809;BME280;33573;38.790;-77.084;2024-01-16T07:11:26;101390.38;;;15.28;24.79
47809;BME280;33573;38.790;-77.084;2024-01-16T07:13:46;101390.18;;;15.33;24.73
47809;BME280;33573;38.790;-77.084;2024-01-16T07:16:17;101397.08;;;15.11;24.68
47809;BME280;33573;38.790;-77.084;2024-01-16T07:18:42;101393.46;;;15.30;24.72
47809;BME280;33573;38.790;-77.084;2024-01-16T07:21:03;101393.03;;;15.29;24.71
47809;BME280;33573;38.790;-77.084;2024-01-16T07:23:33;101390.06;;;15.50;24.75
47809;BME280;33573;38.790;-77.084;2024-01-16T07:25:59;101383.07;;;15.25;24.73
47809;BME280;33573;38.790;-77.084;2024-01-16T07:28:19;101372.02;;;15.32;24.65
47809;BME280;33573;38.790;-77.084;2024-01-16T07:30:52;101387.88;;;15.29;24.66
47809;BME280;33573;38.790;-77.084;2024-01-16T07:33:10;101398.02;;;15.43;24.73
47809;BME280;33573;38.790;-77.084;2024-01-16T07:35:45;101386.74;;;15.17;24.74
47809;BME280;33573;38.790;-77.084;2024-01-16T07:38:06;101369.44;;;15.13;24.78
47809;BME280;33573;38.790;-77.084;2024-01-16T07:40:32;101373.92;;;15.19;24.71
47809;BME280;33573;38.790;-77.084;2024-01-16T07:43:01;101377.70;;;15.37;24.74
47809;BME280;33573;38.790;-77.084;2024-01-16T07:45:23;101357.62;;;15.34;24.76
47809;BME280;33573;38.790;-77.084;2024-01-16T07:47:48;101343.76;;;15.12;24.71
47809;BME280;33573;38.790;-77.084;2024-01-16T07:50:18;101332.77;;;15.10;24.73
47809;BME280;33573;38.790;-77.084;2024-01-16T07:52:34;101323.03;;;15.15;24.66
47809;BME280;33573;38.790;-77.084;2024-01-16T07:55:05;101322.90;;;15.14;24.67
47809;BME280;33573;38.790;-77.084;2024-01-16T07:57:34;101318.81;;;15.30;24.74
47809;BME280;33573;38.790;-77.084;2024-01-16T07:59:50;101321.29;;;15.27;24.74
47809;BME280;33573;38.790;-77.084;2024-01-16T08:02:21;101324.81;;;15.29;24.73
47809;BME280;33573;38.790;-77.084;2024-01-16T08:04:46;101332.60;;;15.34;24.67
47809;BME280;33573;38.790;-77.084;2024-01-16T08:07:12;101339.93;;;14.99;24.75
47809;BME280;33573;38.790;-77.084;2024-01-16T08:09:37;101360.63;;;14.98;24.76
47809;BME280;33573;38.790;-77.084;2024-01-16T08:12:03;101357.31;;;15.30;24.67
47809;BME280;33573;38.790;-77.084;2024-01-16T08:14:23;101353.69;;;15.04;24.68
47809;BME280;33573;38.790;-77.084;2024-01-16T08:16:54;101357.86;;;15.00;24.71
47809;BME280;33573;38.790;-77.084;2024-01-16T08:19:14;101352.89;;;14.96;24.71
47809;BME280;33573;38.790;-77.084;2024-01-16T08:21:39;101361.54;;;15.33;24.59
47809;BME280;33573;38.790;-77.084;2024-01-16T08:24:05;101355.21;;;14.95;24.71
47809;BME280;33573;38.790;-77.084;2024-01-16T08:26:35;101343.94;;;14.95;24.69
47809;BME280;33573;38.790;-77.084;2024-01-16T08:28:56;101339.39;;;15.25;24.63
47809;BME280;33573;38.790;-77.084;2024-01-16T08:31:26;101317.26;;;15.21;24.66
47809;BME280;33573;38.790;-77.084;2024-01-16T08:33:56;101307.75;;;15.18;24.66
47809;BME280;33573;38.790;-77.084;2024-01-16T08:36:17;101285.75;;;15.16;24.68
47809;BME280;33573;38.790;-77.084;2024-01-16T08:38:38;101281.47;;;15.12;24.69
47809;BME280;33573;38.790;-77.084;2024-01-16T08:41:08;101270.60;;;15.11;24.69
47809;BME280;33573;38.790;-77.084;2024-01-16T08:43:34;101254.67;;;14.98;24.59
47809;BME280;33573;38.790;-77.084;2024-01-16T08:45:59;101251.97;;;15.12;24.65
47809;BME280;33573;38.790;-77.084;2024-01-16T08:48:20;101238.38;;;15.20;24.58
47809;BME280;33573;38.790;-77.084;2024-01-16T08:50:45;101222.11;;;14.87;24.63
47809;BME280;33573;38.790;-77.084;2024-01-16T08:53:16;101216.32;;;14.89;24.61
47809;BME280;33573;38.790;-77.084;2024-01-16T08:55:36;101221.03;;;15.19;24.54
47809;BME280;33573;38.790;-77.084;2024-01-16T08:58:07;101212.17;;;14.77;24.67
47809;BME280;33573;38.790;-77.084;2024-01-16T09:00:27;101206.75;;;15.12;24.57
47809;BME280;33573;38.790;-77.084;2024-01-16T09:03:02;101206.07;;;15.09;24.58
47809;BME280;33573;38.790;-77.084;2024-01-16T09:05:23;101204.30;;;14.76;24.66
47809;BME280;33573;38.790;-77.084;2024-01-16T09:07:49;101184.44;;;15.04;24.60
47809;BME280;33573;38.790;-77.084;2024-01-16T09:10:18;101194.63;;;15.15;24.53
47809;BME280;33573;38.790;-77.084;2024-01-16T09:12:39;101192.35;;;14.78;24.62
47809;BME280;33573;38.790;-77.084;2024-01-16T09:15:06;101162.40;;;14.98;24.62
47809;BME280;33573;38.790;-77.084;2024-01-16T09:17:25;101160.94;;;14.73;24.62
47809;BME280;33573;38.790;-77.084;2024-01-16T09:20:00;101141.16;;;14.79;24.57
47809;BME280;33573;38.790;-77.084;2024-01-16T09:22:16;101131.72;;;14.77;24.60
47809;BME280;33573;38.790;-77.084;2024-01-16T09:24:42;101139.43;;;15.06;24.51
47809;BME280;33573;38.790;-77.084;2024-01-16T09:27:16;101159.47;;;15.08;24.48
47809;BME280;33573;38.790;-77.084;2024-01-16T09:29:38;101177.45;;;15.00;24.55
47809;BME280;33573;38.790;-77.084;2024-01-16T09:32:04;101170.34;;;14.94;24.58
47809;BME280;33573;38.790;-77.084;2024-01-16T09:34:24;101158.74;;;14.71;24.59
47809;BME280;33573;38.790;-77.084;2024-01-16T09:36:54;101123.81;;;15.02;24.50
47809;BME280;33573;38.790;-77.084;2024-01-16T09:39:20;101134.25;;;15.02;24.49
47809;BME280;33573;38.790;-77.084;2024-01-16T09:41:49;101140.38;;;14.74;24.52
47809;BME280;33573;38.790;-77.084;2024-01-16T09:44:11;101135.55;;;14.90;24.58
47809;BME280;33573;38.790;-77.084;2024-01-16T09:46:38;101127.65;;;14.91;24.55
47809;BME280;33573;38.790;-77.084;2024-01-16T09:49:06;101116.70;;;15.00;24.51
47809;BME280;33573;38.790;-77.084;2024-01-16T09:51:27;101106.35;;;14.94;24.59
47809;BME280;33573;38.790;-77.084;2024-01-16T09:53:53;101095.97;;;15.12;24.52
47809;BME280;33573;38.790;-77.084;2024-01-16T09:56:15;101089.20;;;15.29;24.43
47809;BME280;33573;38.790;-77.084;2024-01-16T09:58:44;101086.15;;;15.23;24.34
47809;BME280;33573;38.790;-77.084;2024-01-16T10:01:09;101076.40;;;15.29;24.32
47809;BME280;33573;38.790;-77.084;2024-01-16T10:03:39;101071.84;;;15.37;24.33
47809;BME280;33573;38.790;-77.084;2024-01-16T10:06:01;101069.91;;;15.77;24.28
47809;BME280;33573;38.790;-77.084;2024-01-16T10:08:20;101064.43;;;15.58;24.29
47809;BME280;33573;38.790;-77.084;2024-01-16T10:10:55;101072.46;;;15.51;24.37
47809;BME280;33573;38.790;-77.084;2024-01-16T10:13:17;101077.93;;;15.64;24.38
47809;BME280;33573;38.790;-77.084;2024-01-16T10:15:42;101079.63;;;15.66;24.41
47809;BME280;33573;38.790;-77.084;2024-01-16T10:20:34;101089.02;;;15.79;24.38
47809;BME280;33573;38.790;-77.084;2024-01-16T10:22:58;101080.21;;;15.82;24.49
47809;BME280;33573;38.790;-77.084;2024-01-16T10:25:24;101050.26;;;15.85;24.49
47809;BME280;33573;38.790;-77.084;2024-01-16T10:27:49;101038.42;;;15.70;24.46
47809;BME280;33573;38.790;-77.084;2024-01-16T10:30:15;101050.28;;;15.85;24.61
47809;BME280;33573;38.790;-77.084;2024-01-16T10:32:44;101045.67;;;15.96;24.62
47809;BME280;33573;38.790;-77.084;2024-01-16T10:35:07;101037.16;;;15.73;24.64
47809;BME280;33573;38.790;-77.084;2024-01-16T10:37:33;101030.32;;;15.66;24.81
47809;BME280;33573;38.790;-77.084;2024-01-16T10:40:01;101025.40;;;15.99;24.76
47809;BME280;33573;38.790;-77.084;2024-01-16T10:42:22;101012.88;;;15.79;24.84
47809;BME280;33573;38.790;-77.084;2024-01-16T10:44:53;101008.46;;;15.94;24.91
47809;BME280;33573;38.790;-77.084;2024-01-16T10:47:17;101003.48;;;15.90;24.81
47809;BME280;33573;38.790;-77.084;2024-01-16T10:49:38;101012.66;;;16.17;24.79
47809;BME280;33573;38.790;-77.084;2024-01-16T10:52:06;101000.57;;;15.91;24.76
47809;BME280;33573;38.790;-77.084;2024-01-16T10:54:33;100995.49;;;15.75;24.91
47809;BME280;33573;38.790;-77.084;2024-01-16T10:56:56;100986.25;;;15.88;24.91
47809;BME280;33573;38.790;-77.084;2024-01-16T10:59:24;100974.23;;;16.27;24.83
47809;BME280;33573;38.790;-77.084;2024-01-16T11:01:43;100968.43;;;16.22;24.72
47809;BME280;33573;38.790;-77.084;2024-01-16T11:04:07;100984.29;;;16.09;24.90
47809;BME280;33573;38.790;-77.084;2024-01-16T11:06:37;100988.00;;;16.36;24.76
47809;BME280;33573;38.790;-77.084;2024-01-16T11:09:06;100982.57;;;16.18;24.89
47809;BME280;33573;38.790;-77.084;2024-01-16T11:11:28;100981.59;;;16.21;25.00
47809;BME280;33573;38.790;-77.084;2024-01-16T11:13:54;100975.82;;;15.77;25.00
47809;BME280;33573;38.790;-77.084;2024-01-16T11:16:14;100986.43;;;16.05;25.01
47809;BME280;33573;38.790;-77.084;2024-01-16T11:18:39;100979.94;;;16.12;24.99
47809;BME280;33573;38.790;-77.084;2024-01-16T11:21:11;100983.33;;;16.23;24.97
47809;BME280;33573;38.790;-77.084;2024-01-16T11:23:39;100982.48;;;16.21;24.97
47809;BME280;33573;38.790;-77.084;2024-01-16T11:26:02;100984.89;;;16.30;25.01
47809;BME280;33573;38.790;-77.084;2024-01-16T11:28:28;100969.06;;;16.00;25.00
47809;BME280;33573;38.790;-77.084;2024-01-16T11:30:55;100956.39;;;16.36;24.89
47809;BME280;33573;38.790;-77.084;2024-01-16T11:35:42;100957.47;;;16.04;24.95
47809;BME280;33573;38.790;-77.084;2024-01-16T11:38:14;100948.60;;;16.27;25.04
47809;BME280;33573;38.790;-77.084;2024-01-16T11:40:32;100958.33;;;16.39;24.95
47809;BME280;33573;38.790;-77.084;2024-01-16T11:42:54;100966.16;;;16.54;24.97
47809;BME280;33573;38.790;-77.084;2024-01-16T11:52:41;100956.18;;;16.03;25.16
47809;BME280;33573;38.790;-77.084;2024-01-16T11:55:01;100954.58;;;16.00;25.07
47809;BME280;33573;38.790;-77.084;2024-01-16T11:57:47;100945.52;;;16.20;25.09
47809;BME280;33573;38.790;-77.084;2024-01-16T11:59:59;100937.25;;;16.01;25.05
47809;BME280;33573;38.790;-77.084;2024-01-16T12:02:29;100938.82;;;16.16;25.01
47809;BME280;33573;38.790;-77.084;2024-01-16T12:04:53;100943.14;;;16.22;25.04
47809;BME280;33573;38.790;-77.084;2024-01-16T12:07:13;100951.88;;;16.16;25.07
47809;BME280;33573;38.790;-77.084;2024-01-16T12:09:34;100945.43;;;16.34;25.04
47809;BME280;33573;38.790;-77.084;2024-01-16T12:12:01;100941.26;;;16.03;25.12
47809;BME280;33573;38.790;-77.084;2024-01-16T12:14:30;100945.93;;;15.88;25.20
47809;BME280;33573;38.790;-77.084;2024-01-16T12:19:20;100939.85;;;16.03;25.16
47809;BME280;33573;38.790;-77.084;2024-01-16T12:21:46;100940.83;;;16.47;24.97
47809;BME280;33573;38.790;-77.084;2024-01-16T12:24:16;100924.96;;;16.47;25.07
47809;BME280;33573;38.790;-77.084;2024-01-16T12:26:32;100921.87;;;16.47;25.03
47809;BME280;33573;38.790;-77.084;2024-01-16T12:29:02;100911.24;;;16.01;25.17
47809;BME280;33573;38.790;-77.084;2024-01-16T12:31:28;100918.21;;;16.03;25.16
47809;BME280;33573;38.790;-77.084;2024-01-16T12:33:54;100912.82;;;16.29;25.13
47809;BME280;33573;38.790;-77.084;2024-01-16T12:36:19;100905.38;;;16.62;25.07
47809;BME280;33573;38.790;-77.084;2024-01-16T12:38:44;100888.35;;;16.02;25.27
47809;BME280;33573;38.790;-77.084;2024-01-16T12:41:10;100883.87;;;16.46;25.10
47809;BME280;33573;38.790;-77.084;2024-01-16T12:43:35;100893.43;;;16.19;25.14